createdAt,value
2023-05-13T00:00:53.137Z,15.80
2023-05-13T00:01:53.112Z,15.78
2023-05-13T00:02:53.175Z,15.77
2023-05-13T00:03:53.808Z,15.75
2023-05-13T00:04:53.752Z,15.74
2023-05-13T00:05:53.789Z,15.73
2023-05-13T00:06:53.068Z,15.71
2023-05-13T00:07:53.043Z,15.69
2023-05-13T00:08:53.726Z,15.67
2023-05-13T00:09:53.692Z,15.65
2023-05-13T00:10:53.007Z,15.63
2023-05-13T00:11:53.697Z,15.61
2023-05-13T00:12:52.990Z,15.61
2023-05-13T00:13:52.991Z,15.59
2023-05-13T00:14:53.659Z,15.56
2023-05-13T00:15:53.022Z,15.54
2023-05-13T00:16:53.636Z,15.53
2023-05-13T00:17:52.953Z,15.51
2023-05-13T00:18:52.961Z,15.50
2023-05-13T00:19:53.604Z,15.48
2023-05-13T00:20:53.592Z,15.46
2023-05-13T00:21:53.578Z,15.45
2023-05-13T00:22:53.553Z,15.43
2023-05-13T00:23:53.550Z,15.42
2023-05-13T00:24:53.786Z,15.40
2023-05-13T00:25:53.787Z,15.39
2023-05-13T00:26:52.833Z,15.38
2023-05-13T00:27:53.490Z,15.36
2023-05-13T00:28:52.797Z,15.34
2023-05-13T00:29:53.490Z,15.32
2023-05-13T00:30:53.742Z,15.31
2023-05-13T00:31:53.751Z,15.29
2023-05-13T00:32:53.762Z,15.28
2023-05-13T00:33:53.721Z,15.26
2023-05-13T00:34:53.439Z,15.25
2023-05-13T00:35:53.434Z,15.24
2023-05-13T00:36:53.685Z,15.22
2023-05-13T00:37:53.680Z,15.20
2023-05-13T00:38:53.659Z,15.19
2023-05-13T00:39:53.633Z,15.18
2023-05-13T00:40:53.638Z,15.16
2023-05-13T00:41:54.630Z,15.14
2023-05-13T00:42:53.350Z,15.12
2023-05-13T00:43:53.340Z,15.10
2023-05-13T00:44:54.584Z,15.08
2023-05-13T00:45:53.361Z,15.06
2023-05-13T00:46:53.290Z,15.05
2023-05-13T00:47:52.753Z,15.03
2023-05-13T00:48:53.290Z,15.00
2023-05-13T00:49:53.287Z,14.99
2023-05-13T00:50:53.253Z,14.96
2023-05-13T00:51:53.235Z,14.94
2023-05-13T00:52:52.550Z,14.91
2023-05-13T00:53:52.556Z,14.89
2023-05-13T00:54:53.457Z,14.87
2023-05-13T00:55:53.467Z,14.84
2023-05-13T00:56:53.202Z,14.81
2023-05-13T00:57:53.386Z,14.80
2023-05-13T00:58:52.481Z,14.77
2023-05-13T00:59:53.170Z,14.74
2023-05-13T01:00:52.525Z,14.72
2023-05-13T01:01:53.364Z,14.70
2023-05-13T01:02:53.235Z,14.68
2023-05-13T01:03:52.440Z,14.66
2023-05-13T01:04:52.443Z,14.64
2023-05-13T01:05:52.423Z,14.62
2023-05-13T01:06:53.096Z,14.61
2023-05-13T01:07:53.078Z,14.59
2023-05-13T01:08:53.076Z,14.57
2023-05-13T01:09:52.380Z,14.56
2023-05-13T01:10:52.365Z,14.56
2023-05-13T01:11:52.339Z,14.54
2023-05-13T01:12:52.342Z,14.53
2023-05-13T01:13:52.320Z,14.51
2023-05-13T01:14:52.360Z,14.51
2023-05-13T01:15:52.296Z,14.49
2023-05-13T01:16:53.002Z,14.46
2023-05-13T01:17:53.297Z,14.45
2023-05-13T01:18:52.321Z,14.44
2023-05-13T01:19:52.933Z,14.43
2023-05-13T01:20:52.938Z,14.42
2023-05-13T01:21:52.944Z,14.40
2023-05-13T01:22:52.915Z,14.40
2023-05-13T01:23:52.260Z,14.39
2023-05-13T01:24:52.911Z,14.38
2023-05-13T01:25:52.880Z,14.37
2023-05-13T01:26:52.873Z,14.36
2023-05-13T01:27:52.842Z,14.35
2023-05-13T01:28:53.131Z,14.33
2023-05-13T01:29:52.843Z,14.32
2023-05-13T01:30:52.158Z,14.29
2023-05-13T01:31:52.129Z,14.28
2023-05-13T01:32:52.845Z,14.26
2023-05-13T01:33:52.109Z,14.24
2023-05-13T01:34:52.100Z,14.22
2023-05-13T01:35:52.777Z,14.20
2023-05-13T01:36:52.765Z,14.18
2023-05-13T01:37:52.735Z,14.16
2023-05-13T01:38:52.045Z,14.14
2023-05-13T01:39:52.990Z,14.12
2023-05-13T01:40:52.716Z,14.11
2023-05-13T01:41:52.977Z,14.08
2023-05-13T01:42:52.698Z,14.07
2023-05-13T01:43:56.905Z,14.06
2023-05-13T01:44:53.679Z,14.04
2023-05-13T01:45:52.663Z,14.03
2023-05-13T01:46:52.092Z,14.02
2023-05-13T01:47:52.691Z,14.01
2023-05-13T01:48:52.656Z,13.99
2023-05-13T01:49:52.622Z,13.97
2023-05-13T01:50:52.604Z,13.95
2023-05-13T01:51:51.944Z,13.95
2023-05-13T01:52:52.592Z,13.93
2023-05-13T01:53:52.576Z,13.92
2023-05-13T01:54:52.565Z,13.90
2023-05-13T01:55:52.537Z,13.90
2023-05-13T01:56:51.856Z,13.88
2023-05-13T01:57:52.528Z,13.87
2023-05-13T01:58:51.817Z,13.85
2023-05-13T01:59:52.504Z,13.84
2023-05-13T02:00:52.477Z,13.83
2023-05-13T02:01:52.518Z,13.80
2023-05-13T02:02:51.864Z,13.80
2023-05-13T02:03:52.538Z,13.78
2023-05-13T02:04:52.438Z,13.77
2023-05-13T02:05:52.422Z,13.76
2023-05-13T02:06:52.425Z,13.74
2023-05-13T02:07:51.730Z,13.73
2023-05-13T02:08:51.720Z,13.72
2023-05-13T02:09:52.380Z,13.71
2023-05-13T02:10:52.387Z,13.69
2023-05-13T02:11:53.621Z,13.68
2023-05-13T02:12:51.664Z,13.67
2023-05-13T02:13:52.351Z,13.66
2023-05-13T02:14:52.334Z,13.64
2023-05-13T02:15:52.330Z,13.63
2023-05-13T02:16:52.394Z,13.63
2023-05-13T02:17:52.597Z,13.62
2023-05-13T02:18:52.311Z,13.61
2023-05-13T02:19:52.271Z,13.59
2023-05-13T02:20:52.279Z,13.58
2023-05-13T02:21:52.273Z,13.57
2023-05-13T02:22:52.266Z,13.55
2023-05-13T02:23:52.245Z,13.53
2023-05-13T02:24:51.542Z,13.53
2023-05-13T02:25:52.229Z,13.52
2023-05-13T02:26:51.529Z,13.51
2023-05-13T02:27:52.203Z,13.50
2023-05-13T02:28:52.177Z,13.49
2023-05-13T02:29:52.186Z,13.48
2023-05-13T02:30:51.484Z,13.47
2023-05-13T02:31:51.510Z,13.46
2023-05-13T02:32:52.176Z,13.45
2023-05-13T02:33:52.122Z,13.44
2023-05-13T02:34:52.133Z,13.43
2023-05-13T02:35:52.118Z,13.42
2023-05-13T02:36:51.434Z,13.41
2023-05-13T02:37:52.078Z,13.41
2023-05-13T02:38:52.093Z,13.39
2023-05-13T02:39:52.076Z,13.38
2023-05-13T02:40:51.390Z,13.37
2023-05-13T02:41:52.072Z,13.36
2023-05-13T02:42:52.033Z,13.35
2023-05-13T02:43:52.035Z,13.35
2023-05-13T02:44:52.023Z,13.34
2023-05-13T02:45:52.036Z,13.33
2023-05-13T02:46:51.981Z,13.32
2023-05-13T02:47:51.356Z,13.31
2023-05-13T02:48:51.298Z,13.30
2023-05-13T02:49:51.969Z,13.29
2023-05-13T02:50:51.960Z,13.28
2023-05-13T02:51:51.280Z,13.27
2023-05-13T02:52:51.258Z,13.27
2023-05-13T02:53:51.227Z,13.26
2023-05-13T02:54:51.260Z,13.26
2023-05-13T02:55:51.284Z,13.25
2023-05-13T02:56:51.874Z,13.25
2023-05-13T02:57:51.885Z,13.23
2023-05-13T02:58:51.870Z,13.22
2023-05-13T02:59:51.862Z,13.20
2023-05-13T03:00:51.175Z,13.20
2023-05-13T03:01:51.244Z,13.19
2023-05-13T03:02:51.946Z,13.17
2023-05-13T03:03:51.814Z,13.17
2023-05-13T03:04:51.113Z,13.15
2023-05-13T03:05:51.783Z,13.15
2023-05-13T03:06:51.101Z,13.14
2023-05-13T03:07:51.781Z,13.12
2023-05-13T03:08:51.795Z,13.12
2023-05-13T03:09:51.769Z,13.12
2023-05-13T03:10:51.736Z,13.10
2023-05-13T03:11:51.051Z,13.10
2023-05-13T03:12:51.723Z,13.09
2023-05-13T03:13:51.708Z,13.07
2023-05-13T03:14:51.681Z,13.06
2023-05-13T03:15:51.751Z,13.06
2023-05-13T03:16:51.678Z,13.05
2023-05-13T03:17:51.011Z,13.04
2023-05-13T03:18:51.719Z,13.04
2023-05-13T03:19:51.643Z,13.02
2023-05-13T03:20:51.632Z,13.01
2023-05-13T03:21:51.622Z,13.01
2023-05-13T03:22:51.611Z,13.01
2023-05-13T03:23:50.913Z,13.00
2023-05-13T03:24:51.571Z,13.00
2023-05-13T03:25:51.578Z,13.01
2023-05-13T03:26:51.578Z,13.01
2023-05-13T03:27:51.559Z,13.00
2023-05-13T03:28:51.531Z,13.00
2023-05-13T03:29:50.880Z,13.00
2023-05-13T03:30:51.690Z,13.00
2023-05-13T03:31:51.658Z,12.99
2023-05-13T03:32:51.563Z,12.98
2023-05-13T03:33:50.825Z,12.98
2023-05-13T03:34:50.796Z,12.98
2023-05-13T03:35:50.784Z,12.98
2023-05-13T03:36:51.460Z,12.97
2023-05-13T03:37:51.433Z,12.98
2023-05-13T03:38:51.434Z,12.98
2023-05-13T03:39:50.762Z,12.97
2023-05-13T03:40:50.725Z,12.98
2023-05-13T03:41:51.402Z,12.99
2023-05-13T03:42:51.372Z,12.99
2023-05-13T03:43:51.381Z,13.00
2023-05-13T03:44:51.374Z,13.00
2023-05-13T03:45:51.360Z,13.01
2023-05-13T03:46:50.704Z,13.00
2023-05-13T03:47:50.732Z,13.02
2023-05-13T03:48:51.330Z,13.04
2023-05-13T03:49:51.328Z,13.05
2023-05-13T03:50:51.304Z,13.05
2023-05-13T03:51:50.625Z,13.06
2023-05-13T03:52:50.614Z,13.07
2023-05-13T03:53:51.278Z,13.08
2023-05-13T03:54:50.572Z,13.10
2023-05-13T03:55:51.256Z,13.11
2023-05-13T03:56:51.218Z,13.12
2023-05-13T03:57:51.228Z,13.16
2023-05-13T03:58:51.218Z,13.16
2023-05-13T03:59:51.239Z,13.18
2023-05-13T04:00:51.195Z,13.21
2023-05-13T04:01:51.193Z,13.23
2023-05-13T04:02:50.592Z,13.24
2023-05-13T04:03:50.491Z,13.26
2023-05-13T04:04:51.226Z,13.29
2023-05-13T04:05:51.123Z,13.31
2023-05-13T04:06:51.113Z,13.34
2023-05-13T04:07:51.133Z,13.38
2023-05-13T04:08:50.413Z,13.42
2023-05-13T04:09:50.420Z,13.46
2023-05-13T04:10:50.410Z,13.51
2023-05-13T04:11:51.073Z,13.57
2023-05-13T04:12:51.063Z,13.65
2023-05-13T04:13:51.054Z,13.72
2023-05-13T04:14:50.361Z,13.80
2023-05-13T04:15:50.356Z,13.91
2023-05-13T04:16:51.109Z,14.02
2023-05-13T04:17:50.386Z,14.16
2023-05-13T04:18:50.376Z,14.29
2023-05-13T04:19:50.316Z,14.45
2023-05-13T04:20:50.958Z,14.64
2023-05-13T04:21:50.267Z,14.83
2023-05-13T04:22:50.962Z,15.05
2023-05-13T04:23:50.947Z,15.30
2023-05-13T04:24:50.924Z,15.55
2023-05-13T04:25:50.929Z,15.83
2023-05-13T04:26:50.229Z,16.12
2023-05-13T04:27:50.245Z,16.42
2023-05-13T04:28:50.891Z,16.71
2023-05-13T04:29:50.913Z,17.01
2023-05-13T04:30:50.869Z,17.31
2023-05-13T04:31:50.961Z,17.60
2023-05-13T04:32:50.194Z,17.90
2023-05-13T04:33:50.176Z,18.19
2023-05-13T04:34:50.806Z,18.47
2023-05-13T04:35:50.129Z,18.76
2023-05-13T04:36:50.807Z,19.05
2023-05-13T04:37:50.800Z,19.33
2023-05-13T04:38:50.768Z,19.61
2023-05-13T04:39:50.768Z,19.91
2023-05-13T04:40:50.758Z,20.22
2023-05-13T04:41:50.068Z,20.53
2023-05-13T04:42:50.737Z,20.82
2023-05-13T04:43:50.064Z,21.10
2023-05-13T04:44:50.024Z,21.37
2023-05-13T04:45:50.805Z,21.64
2023-05-13T04:46:50.184Z,21.91
2023-05-13T04:47:50.080Z,22.17
2023-05-13T04:48:50.003Z,22.40
2023-05-13T04:49:50.661Z,22.63
2023-05-13T04:50:50.657Z,22.81
2023-05-13T04:51:50.642Z,23.01
2023-05-13T04:52:50.611Z,23.23
2023-05-13T04:53:50.616Z,23.44
2023-05-13T04:54:50.602Z,23.66
2023-05-13T04:55:49.904Z,23.86
2023-05-13T04:56:49.895Z,24.08
2023-05-13T04:57:49.919Z,24.29
2023-05-13T04:58:50.564Z,24.52
2023-05-13T04:59:50.553Z,24.75
2023-05-13T05:00:49.855Z,24.97
2023-05-13T05:01:50.539Z,25.21
2023-05-13T05:02:49.845Z,25.46
2023-05-13T05:03:50.529Z,25.71
2023-05-13T05:04:50.504Z,25.96
2023-05-13T05:05:50.485Z,26.21
2023-05-13T05:06:50.458Z,26.46
2023-05-13T05:07:50.468Z,26.73
2023-05-13T05:08:50.460Z,26.97
2023-05-13T05:09:49.749Z,27.22
2023-05-13T05:10:50.426Z,27.45
2023-05-13T05:11:49.772Z,27.67
2023-05-13T05:12:49.725Z,27.92
2023-05-13T05:13:50.402Z,28.11
2023-05-13T05:14:50.404Z,28.25
2023-05-13T05:15:50.372Z,28.39
2023-05-13T05:16:50.449Z,28.55
2023-05-13T05:17:50.446Z,28.72
2023-05-13T05:18:50.510Z,28.89
2023-05-13T05:19:49.668Z,29.04
2023-05-13T05:20:50.348Z,29.24
2023-05-13T05:21:50.318Z,29.46
2023-05-13T05:22:50.309Z,29.69
2023-05-13T05:23:50.304Z,29.92
2023-05-13T05:24:50.269Z,30.14
2023-05-13T05:25:55.223Z,30.34
2023-05-13T05:26:50.559Z,30.55
2023-05-13T05:27:50.247Z,30.74
2023-05-13T05:28:50.239Z,30.89
2023-05-13T05:29:49.558Z,31.06
2023-05-13T05:30:50.219Z,31.22
2023-05-13T05:31:50.223Z,31.28
2023-05-13T05:32:50.249Z,31.33
2023-05-13T05:33:49.545Z,31.41
2023-05-13T05:34:50.164Z,31.49
2023-05-13T05:35:49.464Z,31.58
2023-05-13T05:36:50.154Z,31.70
2023-05-13T05:37:50.142Z,31.80
2023-05-13T05:38:49.449Z,31.89
2023-05-13T05:39:50.117Z,32.02
2023-05-13T05:40:49.445Z,32.10
2023-05-13T05:41:50.108Z,32.19
2023-05-13T05:42:49.421Z,32.32
2023-05-13T05:43:50.068Z,32.43
2023-05-13T05:44:50.062Z,32.48
2023-05-13T05:45:50.097Z,32.51
2023-05-13T05:46:50.045Z,32.57
2023-05-13T05:47:49.368Z,32.64
2023-05-13T05:48:49.351Z,32.71
2023-05-13T05:49:50.012Z,32.68
2023-05-13T05:50:50.018Z,32.61
2023-05-13T05:51:49.989Z,32.61
2023-05-13T05:52:49.973Z,32.62
2023-05-13T05:53:49.293Z,32.62
2023-05-13T05:54:49.276Z,32.65
2023-05-13T05:55:51.669Z,32.69
2023-05-13T05:56:49.948Z,32.73
2023-05-13T05:57:49.908Z,32.77
2023-05-13T05:58:49.931Z,32.79
2023-05-13T05:59:49.246Z,32.80
2023-05-13T06:00:49.887Z,32.84
2023-05-13T06:01:49.917Z,32.92
2023-05-13T06:02:49.969Z,33.02
2023-05-13T06:03:51.544Z,33.12
2023-05-13T06:04:50.163Z,33.15
2023-05-13T06:05:49.886Z,33.20
2023-05-13T06:06:49.942Z,33.23
2023-05-13T06:07:49.897Z,33.24
2023-05-13T06:08:49.851Z,33.22
2023-05-13T06:09:49.890Z,33.21
2023-05-13T06:10:49.768Z,33.15
2023-05-13T06:11:49.752Z,33.11
2023-05-13T06:12:49.097Z,33.10
2023-05-13T06:13:49.762Z,33.10
2023-05-13T06:14:49.050Z,33.11
2023-05-13T06:15:49.790Z,33.10
2023-05-13T06:16:49.042Z,33.08
2023-05-13T06:17:49.086Z,33.06
2023-05-13T06:18:49.755Z,33.07
2023-05-13T06:19:49.010Z,33.10
2023-05-13T06:20:49.664Z,33.17
2023-05-13T06:21:49.015Z,33.25
2023-05-13T06:22:49.009Z,33.33
2023-05-13T06:23:49.011Z,33.40
2023-05-13T06:24:48.990Z,33.43
2023-05-13T06:25:48.965Z,33.42
2023-05-13T06:26:49.617Z,33.43
2023-05-13T06:27:49.599Z,33.46
2023-05-13T06:28:49.589Z,33.51
2023-05-13T06:29:48.929Z,33.56
2023-05-13T06:30:49.574Z,33.62
2023-05-13T06:31:48.924Z,33.69
2023-05-13T06:33:00.036Z,33.77
2023-05-13T06:33:51.281Z,33.81
2023-05-13T06:34:49.563Z,33.87
2023-05-13T06:35:48.832Z,33.95
2023-05-13T06:36:49.504Z,34.06
2023-05-13T06:37:48.810Z,34.21
2023-05-13T06:38:49.464Z,34.39
2023-05-13T06:39:48.841Z,34.54
2023-05-13T06:40:48.790Z,34.70
2023-05-13T06:41:48.764Z,34.85
2023-05-13T06:42:49.437Z,35.02
2023-05-13T06:43:49.410Z,35.18
2023-05-13T06:44:48.771Z,35.31
2023-05-13T06:45:48.726Z,35.39
2023-05-13T06:46:48.726Z,35.41
2023-05-13T06:47:48.747Z,35.40
2023-05-13T06:48:48.713Z,35.39
2023-05-13T06:49:49.365Z,35.40
2023-05-13T06:50:48.658Z,35.43
2023-05-13T06:51:48.651Z,35.43
2023-05-13T06:52:48.669Z,35.41
2023-05-13T06:53:49.305Z,35.48
2023-05-13T06:54:48.636Z,35.53
2023-05-13T06:55:48.613Z,35.62
2023-05-13T06:56:48.597Z,35.65
2023-05-13T06:57:48.602Z,35.71
2023-05-13T06:58:49.269Z,35.80
2023-05-13T06:59:49.263Z,35.93
2023-05-13T07:00:49.260Z,36.13
2023-05-13T07:01:48.601Z,36.30
2023-05-13T07:02:49.249Z,36.49
2023-05-13T07:03:48.591Z,36.69
2023-05-13T07:04:49.207Z,36.90
2023-05-13T07:05:48.508Z,37.15
2023-05-13T07:06:48.531Z,37.50
2023-05-13T07:07:49.171Z,37.86
2023-05-13T07:08:49.162Z,38.11
2023-05-13T07:09:49.170Z,38.36
2023-05-13T07:10:49.143Z,38.62
2023-05-13T07:11:49.113Z,38.91
2023-05-13T07:12:49.141Z,39.16
2023-05-13T07:13:49.150Z,39.38
2023-05-13T07:14:48.401Z,39.54
2023-05-13T07:15:48.408Z,39.62
2023-05-13T07:16:49.161Z,39.71
2023-05-13T07:17:49.217Z,39.81
2023-05-13T07:18:49.107Z,39.93
2023-05-13T07:19:48.344Z,40.03
2023-05-13T07:20:48.352Z,40.14
2023-05-13T07:21:49.013Z,40.20
2023-05-13T07:22:48.346Z,40.25
2023-05-13T07:23:49.024Z,40.36
2023-05-13T07:24:48.984Z,40.54
2023-05-13T07:25:48.960Z,40.75
2023-05-13T07:26:48.273Z,40.93
2023-05-13T07:27:48.273Z,41.09
2023-05-13T07:28:48.948Z,41.24
2023-05-13T07:29:48.331Z,41.33
2023-05-13T07:30:48.972Z,41.40
2023-05-13T07:31:48.913Z,41.43
2023-05-13T07:32:48.262Z,41.46
2023-05-13T07:33:48.891Z,41.43
2023-05-13T07:34:48.862Z,41.35
2023-05-13T07:35:48.871Z,41.26
2023-05-13T07:36:48.188Z,41.19
2023-05-13T07:37:48.161Z,41.16
2023-05-13T07:38:48.146Z,41.24
2023-05-13T07:39:48.155Z,41.38
2023-05-13T07:40:48.824Z,41.51
2023-05-13T07:41:48.247Z,41.70
2023-05-13T07:42:48.805Z,41.93
2023-05-13T07:43:48.800Z,42.09
2023-05-13T07:44:48.764Z,42.09
2023-05-13T07:45:48.102Z,42.02
2023-05-13T07:46:48.830Z,41.95
2023-05-13T07:47:55.129Z,41.92
2023-05-13T07:48:48.718Z,41.86
2023-05-13T07:49:48.726Z,41.81
2023-05-13T07:50:48.022Z,41.77
2023-05-13T07:51:48.008Z,41.75
2023-05-13T07:52:48.694Z,41.86
2023-05-13T07:53:48.011Z,42.02
2023-05-13T07:54:48.666Z,42.11
2023-05-13T07:55:48.661Z,42.22
2023-05-13T07:56:48.026Z,42.27
2023-05-13T07:57:47.963Z,42.34
2023-05-13T07:58:48.612Z,42.40
2023-05-13T07:59:48.620Z,42.47
2023-05-13T08:00:48.610Z,42.47
2023-05-13T08:01:47.907Z,42.35
2023-05-13T08:02:47.971Z,42.17
2023-05-13T08:03:48.076Z,42.00
2023-05-13T08:04:47.908Z,41.84
2023-05-13T08:05:48.554Z,41.72
2023-05-13T08:06:48.544Z,41.70
2023-05-13T08:07:48.515Z,41.70
2023-05-13T08:08:47.861Z,41.65
2023-05-13T08:09:48.780Z,41.49
2023-05-13T08:10:48.497Z,41.31
2023-05-13T08:11:48.472Z,41.13
2023-05-13T08:12:48.457Z,40.91
2023-05-13T08:13:47.786Z,40.65
2023-05-13T08:14:49.009Z,40.40
2023-05-13T08:15:48.445Z,40.14
2023-05-13T08:16:47.858Z,39.90
2023-05-13T08:17:48.468Z,39.66
2023-05-13T08:18:48.470Z,39.48
2023-05-13T08:19:48.399Z,39.31
2023-05-13T08:20:48.391Z,39.16
2023-05-13T08:21:47.724Z,38.98
2023-05-13T08:22:47.688Z,38.83
2023-05-13T08:23:48.364Z,38.66
2023-05-13T08:24:47.685Z,38.52
2023-05-13T08:25:48.321Z,38.36
2023-05-13T08:26:47.671Z,38.17
2023-05-13T08:27:48.316Z,38.00
2023-05-13T08:28:48.534Z,37.84
2023-05-13T08:29:47.602Z,37.70
2023-05-13T08:30:48.620Z,37.53
2023-05-13T08:31:48.334Z,37.36
2023-05-13T08:32:48.271Z,37.22
2023-05-13T08:33:48.244Z,37.09
2023-05-13T08:34:48.237Z,36.94
2023-05-13T08:35:48.223Z,36.79
2023-05-13T08:36:48.213Z,36.68
2023-05-13T08:37:47.510Z,36.58
2023-05-13T08:38:48.196Z,36.45
2023-05-13T08:39:48.415Z,36.35
2023-05-13T08:40:48.156Z,36.24
2023-05-13T08:41:48.164Z,36.11
2023-05-13T08:42:47.467Z,36.00
2023-05-13T08:43:48.151Z,35.84
2023-05-13T08:44:48.115Z,35.69
2023-05-13T08:45:48.898Z,35.57
2023-05-13T08:46:48.112Z,35.44
2023-05-13T08:47:48.873Z,35.32
2023-05-13T08:48:47.422Z,35.23
2023-05-13T08:49:48.072Z,35.13
2023-05-13T08:50:48.075Z,35.07
2023-05-13T08:51:48.068Z,35.02
2023-05-13T08:52:48.060Z,34.94
2023-05-13T08:53:48.028Z,34.81
2023-05-13T08:54:47.356Z,34.68
2023-05-13T08:55:47.337Z,34.55
2023-05-13T08:56:47.340Z,34.45
2023-05-13T08:57:47.998Z,34.39
2023-05-13T08:58:47.984Z,34.32
2023-05-13T08:59:47.986Z,34.22
2023-05-13T09:00:47.273Z,34.11
2023-05-13T09:01:48.004Z,34.03
2023-05-13T09:02:47.940Z,33.93
2023-05-13T09:03:47.920Z,33.83
2023-05-13T09:04:47.974Z,33.80
2023-05-13T09:05:47.916Z,33.83
2023-05-13T09:06:47.227Z,33.90
2023-05-13T09:07:47.226Z,33.94
2023-05-13T09:08:47.187Z,33.96
2023-05-13T09:09:47.882Z,34.00
2023-05-13T09:10:47.190Z,33.99
2023-05-13T09:11:47.866Z,33.94
2023-05-13T09:12:47.178Z,33.91
2023-05-13T09:13:47.144Z,33.88
2023-05-13T09:14:47.815Z,33.86
2023-05-13T09:15:47.904Z,33.82
2023-05-13T09:16:47.802Z,33.78
2023-05-13T09:17:47.822Z,33.80
2023-05-13T09:18:47.167Z,33.86
2023-05-13T09:19:47.842Z,33.91
2023-05-13T09:20:47.758Z,33.95
2023-05-13T09:21:47.729Z,34.02
2023-05-13T09:22:47.039Z,34.09
2023-05-13T09:23:47.023Z,34.13
2023-05-13T09:24:47.705Z,34.13
2023-05-13T09:25:47.940Z,34.12
2023-05-13T09:26:47.931Z,34.12
2023-05-13T09:27:46.969Z,34.16
2023-05-13T09:28:47.661Z,34.21
2023-05-13T09:29:47.921Z,34.24
2023-05-13T09:30:47.065Z,34.26
2023-05-13T09:31:47.654Z,34.24
2023-05-13T09:32:48.925Z,34.22
2023-05-13T09:33:47.612Z,34.25
2023-05-13T09:34:47.595Z,34.27
2023-05-13T09:35:47.830Z,34.27
2023-05-13T09:36:48.334Z,34.23
2023-05-13T09:37:47.597Z,34.20
2023-05-13T09:38:47.554Z,34.20
2023-05-13T09:39:47.553Z,34.27
2023-05-13T09:40:46.868Z,34.33
2023-05-13T09:41:47.520Z,34.37
2023-05-13T09:42:47.537Z,34.38
2023-05-13T09:43:47.496Z,34.37
2023-05-13T09:44:47.470Z,34.38
2023-05-13T09:45:47.468Z,34.40
2023-05-13T09:46:46.875Z,34.40
2023-05-13T09:47:46.785Z,34.38
2023-05-13T09:48:47.458Z,34.35
2023-05-13T09:49:47.416Z,34.29
2023-05-13T09:50:47.425Z,34.27
2023-05-13T09:51:46.734Z,34.30
2023-05-13T09:52:46.730Z,34.39
2023-05-13T09:53:47.381Z,34.47
2023-05-13T09:54:47.367Z,34.52
2023-05-13T09:55:46.685Z,34.54
2023-05-13T09:56:46.676Z,34.56
2023-05-13T09:57:46.668Z,34.57
2023-05-13T09:58:47.363Z,34.62
2023-05-13T09:59:47.609Z,34.76
2023-05-13T10:00:48.721Z,34.93
2023-05-13T10:01:48.686Z,35.05
2023-05-13T10:02:46.667Z,35.19
2023-05-13T10:03:48.604Z,35.33
2023-05-13T10:04:46.599Z,35.50
2023-05-13T10:05:46.587Z,35.73
2023-05-13T10:06:46.570Z,36.00
2023-05-13T10:07:47.254Z,36.17
2023-05-13T10:08:47.246Z,36.31
2023-05-13T10:09:47.228Z,36.47
2023-05-13T10:10:47.484Z,36.62
2023-05-13T10:11:46.530Z,36.77
2023-05-13T10:12:47.186Z,36.99
2023-05-13T10:13:47.170Z,37.28
2023-05-13T10:14:47.177Z,37.55
2023-05-13T10:15:46.479Z,37.79
2023-05-13T10:16:46.552Z,38.01
2023-05-13T10:17:46.525Z,38.18
2023-05-13T10:18:46.491Z,38.37
2023-05-13T10:19:47.131Z,38.62
2023-05-13T10:20:47.114Z,38.91
2023-05-13T10:21:47.112Z,39.19
2023-05-13T10:22:47.077Z,39.43
2023-05-13T10:23:46.408Z,39.58
2023-05-13T10:24:46.395Z,39.67
2023-05-13T10:25:46.376Z,39.82
2023-05-13T10:26:47.045Z,39.96
2023-05-13T10:27:46.385Z,40.18
2023-05-13T10:28:46.351Z,40.38
2023-05-13T10:29:47.021Z,40.54
2023-05-13T10:30:47.253Z,40.64
2023-05-13T10:31:46.455Z,40.73
2023-05-13T10:32:47.039Z,40.83
2023-05-13T10:33:46.296Z,40.82
2023-05-13T10:34:47.232Z,40.79
2023-05-13T10:35:46.952Z,40.69
2023-05-13T10:36:46.928Z,40.50
2023-05-13T10:37:46.258Z,40.21
2023-05-13T10:38:46.922Z,39.88
2023-05-13T10:39:46.930Z,39.45
2023-05-13T10:40:46.882Z,38.78
2023-05-13T10:41:46.215Z,37.72
2023-05-13T10:42:46.198Z,36.38
2023-05-13T10:43:46.889Z,34.83
2023-05-13T10:44:46.853Z,33.20
2023-05-13T10:45:46.205Z,31.69
2023-05-13T10:46:46.860Z,30.49
2023-05-13T10:47:47.114Z,29.59
2023-05-13T10:48:47.062Z,28.94
2023-05-13T10:49:46.810Z,28.44
2023-05-13T10:50:46.773Z,28.02
2023-05-13T10:51:46.101Z,27.69
2023-05-13T10:52:46.767Z,27.44
2023-05-13T10:53:46.760Z,27.23
2023-05-13T10:54:46.740Z,27.09
2023-05-13T10:55:46.067Z,26.98
2023-05-13T10:56:46.724Z,26.88
2023-05-13T10:57:46.055Z,26.75
2023-05-13T10:58:46.028Z,26.63
2023-05-13T10:59:46.039Z,26.51
2023-05-13T11:00:46.681Z,26.38
2023-05-13T11:01:46.074Z,26.28
2023-05-13T11:02:46.030Z,26.20
2023-05-13T11:03:47.006Z,26.11
2023-05-13T11:04:45.972Z,26.03
2023-05-13T11:05:46.624Z,25.97
2023-05-13T11:06:46.614Z,25.92
2023-05-13T11:07:46.612Z,25.87
2023-05-13T11:08:46.583Z,25.80
2023-05-13T11:09:46.574Z,25.74
2023-05-13T11:10:45.897Z,25.67
2023-05-13T11:11:46.570Z,25.60
2023-05-13T11:12:45.869Z,25.57
2023-05-13T11:13:45.879Z,25.55
2023-05-13T11:14:45.836Z,25.57
2023-05-13T11:15:45.955Z,25.59
2023-05-13T11:16:46.020Z,25.63
2023-05-13T11:17:46.575Z,25.66
2023-05-13T11:18:46.538Z,25.70
2023-05-13T11:19:46.477Z,25.75
2023-05-13T11:20:52.286Z,25.81
2023-05-13T11:21:46.759Z,25.83
2023-05-13T11:22:45.793Z,25.84
2023-05-13T11:23:45.775Z,25.87
2023-05-13T11:24:46.424Z,25.88
2023-05-13T11:25:45.715Z,25.87
2023-05-13T11:26:45.731Z,25.84
2023-05-13T11:27:45.718Z,25.83
2023-05-13T11:28:45.690Z,25.82
2023-05-13T11:29:46.367Z,25.82
2023-05-13T11:30:46.390Z,25.82
2023-05-13T11:31:45.717Z,25.81
2023-05-13T11:32:46.375Z,25.79
2023-05-13T11:33:46.337Z,25.78
2023-05-13T11:34:46.316Z,25.77
2023-05-13T11:35:46.308Z,25.74
2023-05-13T11:36:46.285Z,25.73
2023-05-13T11:37:46.257Z,25.71
2023-05-13T11:38:46.266Z,25.69
2023-05-13T11:39:46.257Z,25.68
2023-05-13T11:40:46.244Z,25.67
2023-05-13T11:41:46.224Z,25.68
2023-05-13T11:42:46.226Z,25.70
2023-05-13T11:43:46.216Z,25.73
2023-05-13T11:44:45.520Z,25.76
2023-05-13T11:45:46.201Z,25.78
2023-05-13T11:46:46.164Z,25.82
2023-05-13T11:47:46.221Z,25.86
2023-05-13T11:48:45.471Z,25.88
2023-05-13T11:49:46.148Z,25.92
2023-05-13T11:50:45.491Z,25.95
2023-05-13T11:51:46.120Z,25.98
2023-05-13T11:52:45.438Z,26.01
2023-05-13T11:53:46.101Z,26.05
2023-05-13T11:54:45.400Z,26.10
2023-05-13T11:55:45.405Z,26.16
2023-05-13T11:56:46.072Z,26.24
2023-05-13T11:57:46.064Z,26.31
2023-05-13T11:58:46.059Z,26.34
2023-05-13T11:59:48.413Z,26.37
2023-05-13T12:00:46.730Z,26.40
2023-05-13T12:01:46.056Z,26.41
2023-05-13T12:02:45.348Z,26.42
2023-05-13T12:03:45.996Z,26.43
2023-05-13T12:04:45.996Z,26.48
2023-05-13T12:05:46.020Z,26.53
2023-05-13T12:06:45.986Z,26.56
2023-05-13T12:07:45.266Z,26.59
2023-05-13T12:08:45.947Z,26.64
2023-05-13T12:09:45.922Z,26.70
2023-05-13T12:10:45.942Z,26.76
2023-05-13T12:11:45.916Z,26.82
2023-05-13T12:12:45.211Z,26.90
2023-05-13T12:13:45.889Z,26.98
2023-05-13T12:14:45.868Z,27.01
2023-05-13T12:15:45.909Z,27.02
2023-05-13T12:16:45.857Z,27.01
2023-05-13T12:17:45.257Z,27.05
2023-05-13T12:18:45.874Z,27.08
2023-05-13T12:19:45.811Z,27.14
2023-05-13T12:20:45.171Z,27.20
2023-05-13T12:21:45.802Z,27.22
2023-05-13T12:22:45.798Z,27.25
2023-05-13T12:23:45.765Z,27.29
2023-05-13T12:24:45.082Z,27.34
2023-05-13T12:25:45.821Z,27.38
2023-05-13T12:26:45.082Z,27.40
2023-05-13T12:27:45.091Z,27.40
2023-05-13T12:28:45.074Z,27.43
2023-05-13T12:29:45.051Z,27.43
2023-05-13T12:30:45.025Z,27.46
2023-05-13T12:31:45.744Z,27.44
2023-05-13T12:32:47.391Z,27.41
2023-05-13T12:33:45.693Z,27.45
2023-05-13T12:34:45.659Z,27.52
2023-05-13T12:35:45.655Z,27.56
2023-05-13T12:36:45.031Z,27.49
2023-05-13T12:37:44.960Z,27.39
2023-05-13T12:38:45.627Z,27.34
2023-05-13T12:39:45.604Z,27.32
2023-05-13T12:40:44.920Z,27.23
2023-05-13T12:41:45.570Z,27.11
2023-05-13T12:42:44.923Z,26.99
2023-05-13T12:43:45.566Z,26.87
2023-05-13T12:44:45.575Z,26.81
2023-05-13T12:45:45.203Z,26.82
2023-05-13T12:46:45.926Z,26.85
2023-05-13T12:47:45.595Z,26.89
2023-05-13T12:48:45.514Z,26.96
2023-05-13T12:49:44.826Z,27.02
2023-05-13T12:50:45.501Z,27.07
2023-05-13T12:51:45.464Z,27.15
2023-05-13T12:52:46.723Z,27.22